createdAt,value
2023-04-02T00:02:22.345Z,99363.69
2023-04-02T00:05:30.655Z,99365.66
2023-04-02T00:08:41.282Z,99365.28
2023-04-02T00:11:54.893Z,99366.09
2023-04-02T00:14:58.923Z,99380.75
2023-04-02T00:18:02.848Z,99371.62
2023-04-02T00:21:10.636Z,99375.22
2023-04-02T00:24:20.362Z,99378.41
2023-04-02T00:27:23.694Z,99379.22
2023-04-02T00:30:27.186Z,99378.47
2023-04-02T00:33:32.419Z,99380.88
2023-04-02T00:36:36.963Z,99393.19
2023-04-02T00:39:42.684Z,99391.56
2023-04-02T00:42:46.772Z,99388.47
2023-04-02T00:45:56.511Z,99393.66
2023-04-02T00:49:34.232Z,99396.81
2023-04-02T00:52:39.167Z,99393.28
2023-04-02T00:55:42.789Z,99395.62
2023-04-02T00:58:50.949Z,99396.88
2023-04-02T01:02:01.933Z,99392.53
2023-04-02T01:05:17.924Z,99390.91
2023-04-02T01:08:34.295Z,99396.06
2023-04-02T01:11:52.301Z,99399.66
2023-04-02T01:15:20.069Z,99395.31
2023-04-02T01:19:27.340Z,99390.91
2023-04-02T01:22:59.627Z,99394.88
2023-04-02T01:26:27.450Z,99390.13
2023-04-02T01:29:42.091Z,99389.72
2023-04-02T01:32:45.844Z,99393.31
2023-04-02T01:35:57.426Z,99388.50
2023-04-02T03:04:42.276Z,99430.84
2023-04-02T03:07:47.384Z,99430.84
2023-04-02T03:11:08.167Z,99426.06
2023-04-02T03:14:23.142Z,99425.69
2023-04-02T03:17:51.727Z,99436.13
2023-04-02T03:21:13.071Z,99432.97
2023-04-02T03:24:32.818Z,99430.72
2023-04-02T03:27:41.732Z,99431.09
2023-04-02T03:30:53.522Z,99433.06
2023-04-02T03:34:08.548Z,99433.41
2023-04-02T03:37:30.150Z,99426.66
2023-04-02T03:40:39.388Z,99434.63
2023-04-02T03:43:47.908Z,99442.97
2023-04-02T03:46:58.961Z,99443.00
2023-04-02T03:50:41.467Z,99431.91
2023-04-02T03:53:45.388Z,99450.97
2023-04-02T03:56:49.363Z,99445.56
2023-04-02T04:00:14.539Z,99446.00
2023-04-02T04:03:21.936Z,99439.78
2023-04-02T04:06:31.945Z,99439.47
2023-04-02T04:09:41.296Z,99449.75
2023-04-02T04:12:47.989Z,99455.84
2023-04-02T04:16:08.096Z,99456.94
2023-04-02T04:19:19.568Z,99462.47
2023-04-02T04:22:30.650Z,99459.56
2023-04-02T04:25:35.222Z,99473.72
2023-04-02T04:28:58.506Z,99471.38
2023-04-02T04:32:33.883Z,99481.75
2023-04-02T04:35:40.411Z,99485.25
2023-04-02T04:38:59.518Z,99489.22
2023-04-02T04:42:07.422Z,99482.94
2023-04-02T04:45:37.444Z,99486.81
2023-04-02T04:48:50.482Z,99491.47
2023-04-02T04:52:12.317Z,99500.53
2023-04-02T04:55:29.543Z,99498.03
2023-04-02T04:58:46.296Z,99508.31
2023-04-02T05:02:11.827Z,99511.09
2023-04-02T05:05:22.046Z,99508.94
2023-04-02T05:08:33.841Z,99506.41
2023-04-02T05:11:43.009Z,99513.06
2023-04-02T05:14:56.887Z,99514.59
2023-04-02T05:18:28.082Z,99507.91
2023-04-02T05:21:49.377Z,99514.72
2023-04-02T05:25:11.308Z,99514.28
2023-04-02T05:28:37.320Z,99510.47
2023-04-02T05:31:49.080Z,99511.38
2023-04-02T05:34:57.436Z,99513.41
2023-04-02T05:38:02.434Z,99512.94
2023-04-02T05:41:14.649Z,99517.41
2023-04-02T05:44:26.889Z,99514.22
2023-04-02T05:47:32.420Z,99515.50
2023-04-02T05:50:43.259Z,99517.19
2023-04-02T05:53:57.099Z,99516.81
2023-04-02T05:57:14.292Z,99517.22
2023-04-02T06:00:39.611Z,99519.66
2023-04-02T06:04:21.737Z,99525.66
2023-04-02T06:07:32.244Z,99526.47
2023-04-02T06:10:46.674Z,99525.72
2023-04-02T06:13:49.518Z,99532.47
2023-04-02T06:16:52.978Z,99537.66
2023-04-02T06:19:58.699Z,99526.59
2023-04-02T06:23:12.798Z,99540.91
2023-04-02T06:26:21.704Z,99545.28
2023-04-02T06:29:30.713Z,99540.16
2023-04-02T06:32:33.705Z,99540.16
2023-04-02T06:35:40.496Z,99553.66
2023-04-02T06:38:44.349Z,99552.47
2023-04-02T06:41:59.971Z,99563.97
2023-04-02T06:45:03.758Z,99558.41
2023-04-02T06:48:21.162Z,99566.31
2023-04-02T06:51:28.589Z,99561.50
2023-04-02T06:54:32.053Z,99572.63
2023-04-02T06:57:36.033Z,99567.06
2023-04-02T07:00:42.792Z,99570.19
2023-04-02T07:03:46.885Z,99569.31
2023-04-02T07:06:51.406Z,99574.13
2023-04-02T07:09:54.404Z,99570.62
2023-04-02T07:12:58.294Z,99579.00
2023-04-02T07:16:01.471Z,99573.06
2023-04-02T07:19:05.998Z,99581.03
2023-04-02T07:22:09.095Z,99582.16
2023-04-02T07:25:12.722Z,99588.47
2023-04-02T07:28:15.696Z,99576.47
2023-04-02T07:31:19.890Z,99586.38
2023-04-02T07:34:22.558Z,99578.62
2023-04-02T07:37:25.524Z,99574.50
2023-04-02T07:40:28.084Z,99588.22
2023-04-02T07:43:31.427Z,99586.75
2023-04-02T07:46:34.019Z,99583.25
2023-04-02T07:49:37.342Z,99588.25
2023-04-02T07:52:44.818Z,99592.22
2023-04-02T07:55:52.881Z,99592.09
2023-04-02T07:58:56.050Z,99592.69
2023-04-02T08:01:59.866Z,99601.69
2023-04-02T08:05:02.980Z,99595.97
2023-04-02T08:08:06.234Z,99602.00
2023-04-02T08:11:09.991Z,99596.50
2023-04-02T08:14:12.551Z,99592.53
2023-04-02T08:17:16.732Z,99593.00
2023-04-02T08:20:22.243Z,99597.78
2023-04-02T08:23:26.250Z,99597.53
2023-04-02T08:26:28.772Z,99599.88
2023-04-02T08:29:32.639Z,99591.53
2023-04-02T08:32:35.577Z,99599.91
2023-04-02T08:35:38.803Z,99598.03
2023-04-02T08:38:43.331Z,99611.63
2023-04-02T08:42:29.231Z,99603.13
2023-04-02T08:45:50.106Z,99607.63
2023-04-02T08:49:00.986Z,99614.28
2023-04-02T08:52:04.379Z,99603.63
2023-04-02T08:55:43.159Z,99615.72
2023-04-02T08:58:54.235Z,99619.78
2023-04-02T09:02:06.630Z,99622.78
2023-04-02T09:05:19.311Z,99622.66
2023-04-02T09:08:25.427Z,99624.94
2023-04-02T09:11:55.068Z,99633.47
2023-04-02T09:15:22.777Z,99629.00
2023-04-02T09:18:30.969Z,99637.94
2023-04-02T09:21:42.208Z,99635.37
2023-04-02T09:24:45.057Z,99629.88
2023-04-02T09:27:56.724Z,99628.72
2023-04-02T09:31:18.311Z,99626.28
2023-04-02T09:34:32.429Z,99618.44
2023-04-02T09:37:35.171Z,99635.63
2023-04-02T09:41:07.489Z,99641.09
2023-04-02T09:44:26.542Z,99642.84
2023-04-02T09:47:32.309Z,99650.72
2023-04-02T09:50:35.259Z,99653.13
2023-04-02T09:53:46.752Z,99654.94
2023-04-02T09:57:02.473Z,99655.03
2023-04-02T10:00:25.294Z,99648.50
2023-04-02T10:03:34.653Z,99653.38
2023-04-02T10:06:37.561Z,99665.41
2023-04-02T10:09:40.620Z,99650.81
2023-04-02T10:12:48.956Z,99658.84
2023-04-02T10:16:01.383Z,99657.13
2023-04-02T10:19:13.660Z,99652.72
2023-04-02T10:22:19.239Z,99649.87
2023-04-02T10:25:25.667Z,99654.69
2023-04-02T10:28:40.459Z,99648.78
2023-04-02T10:32:02.461Z,99651.41
2023-04-02T10:35:40.621Z,99654.31
2023-04-02T10:38:56.195Z,99658.63
2023-04-02T10:42:13.782Z,99651.50
2023-04-02T10:45:45.506Z,99642.91
2023-04-02T10:48:54.749Z,99642.28
2023-04-02T10:52:13.721Z,99641.72
2023-04-02T10:55:25.614Z,99650.03
2023-04-02T10:58:31.967Z,99644.38
2023-04-02T11:01:36.694Z,99638.06
2023-04-02T11:04:46.466Z,99644.81
2023-04-02T11:08:27.738Z,99645.00
2023-04-02T11:11:36.862Z,99640.34
2023-04-02T11:14:41.174Z,99651.34
2023-04-02T11:17:46.017Z,99650.28
2023-04-02T11:20:49.050Z,99653.94
2023-04-02T11:24:01.515Z,99648.41
2023-04-02T11:27:14.588Z,99650.03
2023-04-02T11:30:25.740Z,99648.88
2023-04-02T11:33:37.713Z,99648.88
2023-04-02T11:36:51.195Z,99657.87
2023-04-02T11:39:56.965Z,99653.69
2023-04-02T11:43:32.404Z,99641.84
2023-04-02T11:46:45.744Z,99636.28
2023-04-02T11:50:01.967Z,99631.72
2023-04-02T11:53:17.587Z,99633.56
2023-04-02T11:56:36.810Z,99634.91
2023-04-02T11:59:56.417Z,99631.28
2023-04-02T12:03:38.857Z,99631.94
2023-04-02T12:06:50.496Z,99619.37
2023-04-02T12:09:57.009Z,99631.72
2023-04-02T12:13:00.417Z,99632.59
2023-04-02T12:16:03.758Z,99637.31
2023-04-02T12:19:09.609Z,99645.91
2023-04-02T12:22:33.056Z,99643.13
2023-04-02T12:25:41.297Z,99643.47
2023-04-02T12:28:46.567Z,99636.25
2023-04-02T12:31:50.021Z,99657.72
2023-04-02T12:34:54.410Z,99644.56
2023-04-02T12:37:58.209Z,99654.50
2023-04-02T12:41:03.971Z,99655.47
2023-04-02T12:44:15.686Z,99649.87
2023-04-02T12:47:18.363Z,99645.06
2023-04-02T12:50:23.106Z,99642.72
2023-04-02T12:53:29.654Z,99632.41
2023-04-02T12:56:33.193Z,99636.69
2023-04-02T12:59:39.191Z,99628.66
2023-04-02T13:02:47.599Z,99629.09
2023-04-02T13:05:57.204Z,99619.37
2023-04-02T13:09:02.279Z,99620.00
2023-04-02T13:12:05.788Z,99616.78
2023-04-02T13:15:23.036Z,99604.41
2023-04-02T13:18:25.640Z,99607.47
2023-04-02T13:21:32.312Z,99610.75
2023-04-02T13:24:34.992Z,99610.50
2023-04-02T13:27:38.279Z,99628.00
2023-04-02T13:30:41.735Z,99642.69
2023-04-02T13:33:44.729Z,99653.78
2023-04-02T13:36:48.096Z,99651.88
2023-04-02T13:39:51.181Z,99650.34
2023-04-02T13:42:54.056Z,99656.06
2023-04-02T13:49:05.828Z,99671.38
2023-04-02T13:52:15.795Z,99672.59
2023-04-02T13:55:22.191Z,99676.97
2023-04-02T13:58:25.855Z,99680.56
2023-04-02T14:01:29.283Z,99679.41
2023-04-02T14:04:39.323Z,99680.97
2023-04-02T14:08:08.849Z,99681.25
2023-04-02T14:11:36.031Z,99689.13
2023-04-02T14:14:47.705Z,99690.16
2023-04-02T14:18:05.620Z,99681.84
2023-04-02T14:21:44.260Z,99685.31
2023-04-02T14:25:19.835Z,99682.41
2023-04-02T14:28:45.041Z,99680.47
2023-04-02T14:32:03.932Z,99678.09
2023-04-02T14:35:29.086Z,99672.87
2023-04-02T14:39:29.816Z,99672.44
2023-04-02T14:43:02.040Z,99677.56
2023-04-02T14:46:28.758Z,99683.75
2023-04-02T14:49:42.267Z,99689.22
2023-04-02T14:52:51.724Z,99686.22
2023-04-02T14:55:57.383Z,99687.13
2023-04-02T14:59:38.048Z,99688.28
2023-04-02T15:02:45.047Z,99699.91
2023-04-02T15:06:01.039Z,99696.94
2023-04-02T15:09:26.065Z,99700.97
2023-04-02T15:12:35.911Z,99699.44
2023-04-02T15:15:45.147Z,99691.69
2023-04-02T15:18:53.645Z,99690.25
2023-04-02T15:22:33.518Z,99702.69
2023-04-02T15:25:49.680Z,99692.47
2023-04-02T15:29:01.634Z,99703.66
2023-04-02T15:32:34.428Z,99704.84
2023-04-02T15:35:55.658Z,99712.56
2023-04-02T15:39:18.678Z,99719.41
2023-04-02T15:42:24.110Z,99730.19
2023-04-02T15:45:48.552Z,99727.91
2023-04-02T15:49:22.003Z,99740.81
2023-04-02T15:52:46.126Z,99745.66
2023-04-02T15:56:17.552Z,99747.75
2023-04-02T15:59:46.909Z,99745.03
2023-04-02T16:03:17.720Z,99760.56
2023-04-02T16:06:29.193Z,99753.81
2023-04-02T16:10:01.133Z,99771.72
2023-04-02T16:13:29.830Z,99778.84
2023-04-02T16:16:39.312Z,99794.66
2023-04-02T16:20:20.931Z,99804.88
2023-04-02T16:23:39.346Z,99804.34
2023-04-02T16:27:15.750Z,99817.75
2023-04-02T16:30:46.412Z,99814.06
2023-04-02T16:33:54.930Z,99825.03
2023-04-02T16:37:12.703Z,99824.13
2023-04-02T16:41:07.027Z,99831.56
2023-04-02T16:44:40.737Z,99846.91
2023-04-02T16:48:04.769Z,99847.56
2023-04-02T16:51:20.735Z,99856.91
2023-04-02T16:54:55.452Z,99875.34
2023-04-02T16:58:34.455Z,99875.09
2023-04-02T17:02:04.682Z,99887.16
2023-04-02T17:05:26.683Z,99901.94
2023-04-02T17:08:44.355Z,99905.03
2023-04-02T17:12:04.788Z,99918.91
2023-04-02T17:15:26.643Z,99934.72
2023-04-02T17:18:36.472Z,99938.38
2023-04-02T17:21:45.835Z,99948.84
2023-04-02T17:25:01.075Z,99960.31
2023-04-02T17:28:13.242Z,99964.72
2023-04-02T17:31:31.286Z,99974.12
2023-04-02T17:34:37.925Z,99982.03
2023-04-02T17:37:50.497Z,99998.34
2023-04-02T17:41:19.099Z,100005.22
2023-04-02T17:44:58.631Z,100008.62
2023-04-02T17:48:32.473Z,100016.37
2023-04-02T17:51:58.438Z,100026.06
2023-04-02T17:55:07.698Z,100021.81
2023-04-02T17:58:38.662Z,100028.31
2023-04-02T18:02:03.080Z,100035.25
2023-04-02T18:05:17.816Z,100039.78
2023-04-02T18:08:48.173Z,100057.31
2023-04-02T18:12:14.712Z,100068.13
2023-04-02T18:15:52.549Z,100080.69
2023-04-02T18:19:12.189Z,100078.69
2023-04-02T18:22:34.300Z,100095.81
2023-04-02T18:25:56.983Z,100104.22
2023-04-02T18:29:51.877Z,100113.56
2023-04-02T18:33:48.098Z,100123.34
2023-04-02T18:37:14.234Z,100122.09
2023-04-02T18:40:25.008Z,100121.41
2023-04-02T18:43:59.234Z,100131.06
2023-04-02T18:47:24.028Z,100148.28
2023-04-02T18:50:35.936Z,100149.31
2023-04-02T18:53:43.273Z,100152.09
2023-04-02T18:56:47.455Z,100148.75
2023-04-02T19:00:05.309Z,100161.25
2023-04-02T19:03:30.229Z,100157.84
2023-04-02T19:06:44.613Z,100165.87
2023-04-02T19:09:50.208Z,100160.59
2023-04-02T19:12:56.646Z,100166.63
2023-04-02T19:16:09.352Z,100167.19
2023-04-02T19:19:27.297Z,100174.97
2023-04-02T19:22:44.217Z,100168.53
2023-04-02T19:26:02.520Z,100178.88
2023-04-02T19:29:34.540Z,100170.50
2023-04-02T19:32:57.028Z,100183.66
2023-04-02T19:36:18.425Z,100190.53
2023-04-02T19:39:47.467Z,100192.47
2023-04-02T19:42:56.242Z,100198.34
2023-04-02T19:46:05.820Z,100207.25
2023-04-02T19:49:13.566Z,100216.41
2023-04-02T19:52:18.500Z,100205.25
2023-04-02T19:55:27.659Z,100209.97
2023-04-02T19:58:36.146Z,100219.25
2023-04-02T20:01:39.403Z,100218.31
2023-04-02T20:04:44.809Z,100223.81
2023-04-02T20:07:51.411Z,100235.47
2023-04-02T20:10:58.933Z,100231.44
2023-04-02T20:14:02.901Z,100243.44
2023-04-02T20:17:06.572Z,100248.00
2023-04-02T20:20:11.296Z,100254.66
2023-04-02T20:23:19.284Z,100266.12
2023-04-02T20:26:23.993Z,100267.44
2023-04-02T20:29:29.719Z,100276.84
2023-04-02T20:32:32.762Z,100263.44
2023-04-02T20:36:01.735Z,100271.66
2023-04-02T20:39:08.366Z,100274.66
2023-04-02T20:42:11.407Z,100274.47
2023-04-02T20:45:14.697Z,100275.75
2023-04-02T20:48:18.447Z,100278.06
2023-04-02T20:51:43.301Z,100283.88
2023-04-02T20:55:04.714Z,100282.94
2023-04-02T20:58:07.898Z,100281.19
2023-04-02T21:01:21.094Z,100286.81
2023-04-02T21:04:24.237Z,100284.44
2023-04-02T21:07:26.808Z,100286.50
2023-04-02T21:10:29.728Z,100293.94
2023-04-02T21:13:38.820Z,100297.94
2023-04-02T21:16:42.245Z,100293.41
2023-04-02T21:19:44.905Z,100301.44
2023-04-02T21:22:47.894Z,100301.25
2023-04-02T21:26:06.405Z,100317.03
2023-04-02T21:29:12.036Z,100314.03
2023-04-02T21:32:21.739Z,100320.34
2023-04-02T21:35:25.373Z,100316.75
2023-04-02T21:38:31.322Z,100327.75
2023-04-02T21:41:39.579Z,100329.63
2023-04-02T21:44:44.566Z,100330.19
2023-04-02T21:47:47.545Z,100328.72
2023-04-02T21:50:50.205Z,100330.56
2023-04-02T21:53:56.400Z,100325.91
2023-04-02T21:57:02.431Z,100329.34
2023-04-02T22:00:09.321Z,100323.44
2023-04-02T22:03:18.430Z,100321.50
2023-04-02T22:06:30.460Z,100330.91
2023-04-02T22:09:33.370Z,100333.97
2023-04-02T22:12:35.994Z,100335.91
2023-04-02T22:15:38.858Z,100335.91
2023-04-02T22:18:42.441Z,100333.16
2023-04-02T22:21:46.399Z,100333.66
2023-04-02T22:24:49.056Z,100348.00
2023-04-02T22:27:53.920Z,100337.53
2023-04-02T22:31:06.814Z,100346.13
2023-04-02T22:34:09.857Z,100355.16
2023-04-02T22:37:12.645Z,100359.78
2023-04-02T22:40:15.630Z,100359.94
2023-04-02T22:43:18.179Z,100346.88
2023-04-02T22:46:21.845Z,100348.03
2023-04-02T22:49:24.410Z,100349.50
2023-04-02T22:52:27.297Z,100356.13
2023-04-02T22:55:30.019Z,100366.31
2023-04-02T22:58:33.590Z,100363.56
2023-04-02T23:01:36.978Z,100366.88
2023-04-02T23:04:40.170Z,100368.28
2023-04-02T23:07:42.869Z,100380.94
2023-04-02T23:10:45.880Z,100381.91
2023-04-02T23:13:50.538Z,100387.06
2023-04-02T23:16:53.441Z,100378.50
2023-04-02T23:19:56.117Z,100383.66
2023-04-02T23:22:59.078Z,100387.69
2023-04-02T23:26:08.913Z,100384.97
2023-04-02T23:29:13.172Z,100382.66
2023-04-02T23:32:16.638Z,100388.34
2023-04-02T23:35:19.592Z,100391.53
2023-04-02T23:38:22.148Z,100391.00
2023-04-02T23:41:27.188Z,100394.44
2023-04-02T23:44:29.894Z,100394.69
2023-04-02T23:47:32.983Z,100389.66
2023-04-02T23:50:38.519Z,100379.03
2023-04-02T23:53:42.567Z,100382.63
2023-04-02T23:56:45.398Z,100387.94
2023-04-02T23:59:48.385Z,100389.34
